Air Navigation Services of Czech Republic
Airport: LKMT Updated:  21.01.2020 22:30:26  UTC
 METAR LKMT 21.01. 22:30 ...
METAR LKMT 212230Z 23020KT 8000 OVC009 M01/M02 Q1036 NOSIG RMK REG QNH 1031=
 TAF LKMT 21.01. 17:00 AAB
TAF AMD LKMT 211935Z 2119/2300 24015KT 8000 BKN011      TEMPO 2119/2209 23016G26KT 9999 SCT013      BECMG 2209/2211 BKN020      BECMG 2212/2214 35006KT      TEMPO 2214/2300 5000 -SN BR BKN011=